Time;durP1;ratioP1;P1;durP2;ratioP2;P2;SDS_P1;SDS_P2;PMS_P1;PMS_P2;Temp;Humidity;BMP_temperature;BMP_pressure;BME280_temperature;BME280_humidity;BME280_pressure;Samples;Min_cycle;Max_cycle;Signal;HPM_P1;HPM_P2
2023/05/11 00:00:14;;;;;;;3.60;0.95;;;;;;;;;;4942637;28;20038;-73
2023/05/11 00:02:59;;;;;;;4.25;1.20;;;;;;;;;;4948889;28;20388;-74
2023/05/11 00:05:48;;;;;;;3.72;1.33;;;;;;;;;;4926884;28;20026;-75
2023/05/11 00:08:33;;;;;;;1.77;1.00;;;;;;;;;;4944423;28;20050;-55
2023/05/11 00:11:18;;;;;;;3.80;0.90;;;;;;;;;;4941229;28;20038;-61
2023/05/11 00:14:03;;;;;;;2.40;0.90;;;;;;;;;;4958521;28;20050;-63
2023/05/11 00:16:49;;;;;;;3.25;1.20;;;;;;;;;;4941024;28;20339;-60
2023/05/11 00:19:34;;;;;;;2.05;0.80;;;;;;;;;;4936835;28;20116;-61
2023/05/11 00:22:20;;;;;;;3.33;0.80;;;;;;;;;;4950179;28;20113;-61
2023/05/11 00:25:05;;;;;;;1.27;0.90;;;;;;;;;;4944442;28;20042;-62
2023/05/11 00:27:50;;;;;;;5.78;1.77;;;;;;;;;;4944344;28;20045;-69
2023/05/11 00:30:36;;;;;;;2.28;1.45;;;;;;;;;;4944912;28;20038;-56
2023/05/11 00:33:21;;;;;;;5.70;0.88;;;;;;;;;;4944805;28;20370;-56
2023/05/11 00:36:06;;;;;;;1.05;0.70;;;;;;;;;;4950597;28;20074;-56
2023/05/11 00:38:52;;;;;;;6.45;1.08;;;;;;;;;;4953493;28;20043;-59
2023/05/11 00:41:37;;;;;;;1.90;1.02;;;;;;;;;;4944747;28;20035;-58
2023/05/11 00:44:22;;;;;;;3.30;1.67;;;;;;;;;;4948952;28;20092;-60
2023/05/11 00:47:08;;;;;;;1.45;0.75;;;;;;;;;;4953113;28;20043;-65
2023/05/11 00:49:53;;;;;;;1.15;0.90;;;;;;;;;;4942357;28;20110;-65
2023/05/11 00:52:39;;;;;;;1.05;0.70;;;;;;;;;;4949508;28;20031;-64
2023/05/11 00:55:25;;;;;;;2.03;1.27;;;;;;;;;;4941151;28;20034;-63
2023/05/11 00:58:10;;;;;;;3.85;1.17;;;;;;;;;;4950770;28;20030;-63
2023/05/11 01:00:55;;;;;;;1.23;0.85;;;;;;;;;;4944034;28;20109;-66
2023/05/11 01:03:40;;;;;;;2.20;1.05;;;;;;;;;;4937230;28;20540;-61
2023/05/11 01:06:33;;;;;;;2.78;0.88;;;;;;;;;;4923837;28;20494;-74
2023/05/11 01:09:37;;;;;;;2.05;0.90;;;;;;;;;;4944997;28;20494;-74
2023/05/11 01:12:25;;;;;;;2.13;1.08;;;;;;;;;;4942128;28;20542;-73
2023/05/11 01:15:12;;;;;;;2.92;1.00;;;;;;;;;;4944818;28;20658;-75
2023/05/11 01:18:07;;;;;;;6.90;1.25;;;;;;;;;;4948206;28;20077;-76
2023/05/11 01:20:55;;;;;;;2.05;1.00;;;;;;;;;;4941764;28;20042;-71
2023/05/11 01:23:59;;;;;;;3.60;0.57;;;;;;;;;;4956789;28;20031;-74
2023/05/11 01:27:05;;;;;;;1.00;0.80;;;;;;;;;;4946952;28;20568;-62
2023/05/11 01:30:11;;;;;;;1.77;0.95;;;;;;;;;;4953737;28;20092;-62
2023/05/11 01:32:58;;;;;;;3.00;0.95;;;;;;;;;;4950043;28;20532;-64
2023/05/11 01:35:49;;;;;;;5.40;1.40;;;;;;;;;;4957767;28;20034;-63
2023/05/11 01:38:37;;;;;;;2.13;1.02;;;;;;;;;;4954140;28;20389;-62
2023/05/11 01:41:23;;;;;;;1.50;0.80;;;;;;;;;;4958683;28;20571;-61
2023/05/11 01:44:09;;;;;;;2.88;1.05;;;;;;;;;;4954728;28;20509;-73
2023/05/11 01:46:55;;;;;;;3.42;0.85;;;;;;;;;;4955124;28;20422;-73
2023/05/11 01:49:42;;;;;;;1.70;0.80;;;;;;;;;;4949737;28;20062;-75
2023/05/11 01:52:29;;;;;;;3.33;0.95;;;;;;;;;;4955118;28;20172;-72
2023/05/11 01:55:15;;;;;;;4.80;1.05;;;;;;;;;;4955039;28;20035;-72
2023/05/11 01:58:02;;;;;;;4.53;1.20;;;;;;;;;;4950480;28;20078;-74
2023/05/11 02:00:48;;;;;;;2.20;0.70;;;;;;;;;;4954032;28;20125;-70
2023/05/11 02:03:35;;;;;;;0.68;0.65;;;;;;;;;;4955177;28;20027;-71
2023/05/11 02:06:22;;;;;;;4.47;0.80;;;;;;;;;;4948620;28;20367;-71
2023/05/11 02:09:08;;;;;;;2.35;0.80;;;;;;;;;;4951465;28;20089;-72
2023/05/11 02:11:55;;;;;;;2.20;0.90;;;;;;;;;;4968455;28;20393;-71
2023/05/11 02:14:40;;;;;;;3.85;0.95;;;;;;;;;;4955572;28;20452;-70
2023/05/11 02:17:26;;;;;;;0.98;0.77;;;;;;;;;;4954913;28;20125;-69
2023/05/11 02:20:12;;;;;;;2.17;0.70;;;;;;;;;;4956788;28;20045;-69
2023/05/11 02:22:57;;;;;;;3.67;1.48;;;;;;;;;;4947426;28;20059;-68
2023/05/11 02:25:43;;;;;;;1.02;0.80;;;;;;;;;;4940186;28;20109;-68
2023/05/11 02:28:28;;;;;;;0.70;0.70;;;;;;;;;;4948141;28;20035;-67
2023/05/11 02:31:19;;;;;;;5.18;0.88;;;;;;;;;;4957406;28;20133;-67
2023/05/11 02:34:17;;;;;;;4.15;0.95;;;;;;;;;;4946517;28;20045;-66
2023/05/11 02:37:05;;;;;;;0.83;0.73;;;;;;;;;;4952580;28;20040;-68
2023/05/11 02:39:53;;;;;;;3.30;0.85;;;;;;;;;;4942527;28;20038;-68
2023/05/11 02:42:41;;;;;;;1.17;0.77;;;;;;;;;;4946229;28;20042;-66
2023/05/11 02:45:29;;;;;;;1.45;1.00;;;;;;;;;;4945419;28;20392;-66
2023/05/11 02:48:20;;;;;;;7.60;1.60;;;;;;;;;;4943364;28;20126;-66
2023/05/11 02:51:07;;;;;;;1.92;0.93;;;;;;;;;;4948871;28;20058;-66
2023/05/11 02:53:54;;;;;;;2.92;0.90;;;;;;;;;;4956636;28;20035;-74
2023/05/11 02:56:40;;;;;;;3.05;0.85;;;;;;;;;;4951044;28;20073;-64
2023/05/11 02:59:25;;;;;;;2.15;0.85;;;;;;;;;;4939963;28;20046;-69
2023/05/11 03:02:11;;;;;;;2.53;1.00;;;;;;;;;;4930391;28;20488;-69
2023/05/11 03:04:56;;;;;;;1.50;0.90;;;;;;;;;;4940796;28;20039;-69
2023/05/11 03:07:41;;;;;;;1.35;0.88;;;;;;;;;;4943934;28;20035;-70
2023/05/11 03:10:28;;;;;;;1.73;0.70;;;;;;;;;;4939151;28;20042;-68
2023/05/11 03:13:15;;;;;;;0.88;0.70;;;;;;;;;;4945261;28;20118;-62
2023/05/11 03:16:01;;;;;;;1.45;0.95;;;;;;;;;;4950459;28;20388;-64
2023/05/11 03:18:47;;;;;;;4.95;1.17;;;;;;;;;;4940691;28;20124;-67
2023/05/11 03:21:33;;;;;;;5.05;1.05;;;;;;;;;;4940519;28;20449;-65
2023/05/11 03:24:18;;;;;;;1.58;0.82;;;;;;;;;;4943766;28;20045;-65
2023/05/11 03:27:04;;;;;;;3.45;1.35;;;;;;;;;;4954749;28;20115;-68
2023/05/11 03:29:51;;;;;;;3.45;0.90;;;;;;;;;;4963001;28;20041;-66
2023/05/11 03:32:36;;;;;;;1.05;0.98;;;;;;;;;;4951944;28;20044;-58
2023/05/11 03:35:24;;;;;;;3.13;1.08;;;;;;;;;;4951765;28;20034;-71
2023/05/11 03:38:10;;;;;;;1.58;0.90;;;;;;;;;;4941863;28;20122;-71
2023/05/11 03:40:56;;;;;;;3.85;0.90;;;;;;;;;;4952349;28;20081;-70
2023/05/11 03:43:43;;;;;;;2.67;0.90;;;;;;;;;;4945465;28;20035;-71
2023/05/11 03:46:30;;;;;;;1.08;0.90;;;;;;;;;;4943125;28;20398;-71
2023/05/11 03:49:16;;;;;;;4.78;0.98;;;;;;;;;;4944501;28;20046;-67
2023/05/11 03:52:01;;;;;;;1.45;0.95;;;;;;;;;;4953531;28;20382;-72
2023/05/11 03:54:47;;;;;;;3.35;0.90;;;;;;;;;;4943363;28;20031;-73
2023/05/11 03:57:33;;;;;;;2.67;0.95;;;;;;;;;;4952839;28;20038;-73
2023/05/11 04:00:18;;;;;;;1.90;0.82;;;;;;;;;;4951406;28;20038;-73
2023/05/11 04:03:04;;;;;;;1.55;0.85;;;;;;;;;;4959611;28;20469;-74
2023/05/11 04:05:50;;;;;;;2.65;0.73;;;;;;;;;;4954280;28;20031;-72
2023/05/11 04:08:35;;;;;;;1.35;0.60;;;;;;;;;;4944477;28;20122;-70
2023/05/11 04:11:21;;;;;;;4.07;0.80;;;;;;;;;;4949645;28;20059;-69
2023/05/11 04:14:06;;;;;;;2.05;1.23;;;;;;;;;;4947901;28;20051;-68
2023/05/11 04:16:51;;;;;;;1.35;0.80;;;;;;;;;;4952422;28;20035;-69
2023/05/11 04:19:36;;;;;;;1.50;1.05;;;;;;;;;;4943714;28;20469;-69
2023/05/11 04:22:22;;;;;;;4.68;1.10;;;;;;;;;;4949875;28;20487;-69
2023/05/11 04:25:07;;;;;;;1.75;0.90;;;;;;;;;;4951073;28;20118;-70
2023/05/11 04:27:52;;;;;;;1.38;0.82;;;;;;;;;;4946218;28;20675;-63
2023/05/11 04:30:38;;;;;;;1.25;0.80;;;;;;;;;;4947012;28;20031;-65
2023/05/11 04:33:23;;;;;;;3.45;1.20;;;;;;;;;;4951543;28;20116;-66
2023/05/11 04:36:08;;;;;;;1.10;0.70;;;;;;;;;;4953557;28;20410;-65
2023/05/11 04:38:54;;;;;;;2.40;0.82;;;;;;;;;;4946342;28;20060;-65
2023/05/11 04:41:39;;;;;;;1.90;1.05;;;;;;;;;;4951014;28;20041;-63
2023/05/11 04:44:24;;;;;;;1.13;0.85;;;;;;;;;;4951399;28;20039;-64
2023/05/11 04:47:09;;;;;;;4.35;1.35;;;;;;;;;;4948693;28;20053;-61
2023/05/11 04:49:55;;;;;;;1.77;1.02;;;;;;;;;;4944081;28;20049;-62
2023/05/11 04:52:40;;;;;;;1.42;0.85;;;;;;;;;;4951692;28;20046;-62
2023/05/11 04:55:25;;;;;;;3.47;0.80;;;;;;;;;;4956339;28;20095;-63
2023/05/11 04:58:10;;;;;;;3.65;1.05;;;;;;;;;;4953413;28;20035;-63
2023/05/11 05:00:56;;;;;;;3.28;0.95;;;;;;;;;;4943184;28;20205;-64
2023/05/11 05:03:41;;;;;;;5.43;1.15;;;;;;;;;;4955054;28;20035;-58
2023/05/11 05:06:26;;;;;;;3.00;0.90;;;;;;;;;;4954179;28;20496;-67
2023/05/11 05:09:11;;;;;;;4.10;1.05;;;;;;;;;;4953210;28;20039;-68
2023/05/11 05:11:56;;;;;;;2.55;1.23;;;;;;;;;;4955494;28;20419;-68
2023/05/11 05:14:42;;;;;;;1.10;0.70;;;;;;;;;;4953285;28;20035;-69
2023/05/11 05:17:27;;;;;;;0.93;0.85;;;;;;;;;;4925122;28;20055;-70
2023/05/11 05:20:12;;;;;;;1.90;1.17;;;;;;;;;;4951434;28;20385;-69
2023/05/11 05:22:58;;;;;;;2.45;0.80;;;;;;;;;;4951977;28;20031;-58
2023/05/11 05:25:43;;;;;;;3.50;0.90;;;;;;;;;;4934090;28;20038;-64
2023/05/11 05:28:28;;;;;;;1.83;0.90;;;;;;;;;;4948732;28;20038;-65
2023/05/11 05:31:13;;;;;;;1.20;0.98;;;;;;;;;;4945335;28;20057;-65
2023/05/11 05:33:59;;;;;;;2.28;1.10;;;;;;;;;;4947109;28;20175;-67
2023/05/11 05:36:44;;;;;;;2.00;1.10;;;;;;;;;;4947595;28;20031;-66
2023/05/11 05:39:29;;;;;;;2.20;1.20;;;;;;;;;;4922203;28;20161;-66
2023/05/11 05:42:15;;;;;;;2.33;1.00;;;;;;;;;;4941015;28;20074;-56
2023/05/11 05:45:00;;;;;;;2.92;0.90;;;;;;;;;;4957773;28;20053;-73
2023/05/11 05:47:45;;;;;;;1.67;0.93;;;;;;;;;;4942665;28;20047;-71
2023/05/11 05:50:31;;;;;;;2.70;1.00;;;;;;;;;;4948826;28;20043;-73
2023/05/11 05:53:16;;;;;;;1.67;1.10;;;;;;;;;;4942726;28;20062;-69
2023/05/11 05:56:02;;;;;;;3.20;1.25;;;;;;;;;;4946577;28;20034;-69
2023/05/11 05:58:47;;;;;;;3.80;1.33;;;;;;;;;;4940469;28;20036;-66
2023/05/11 06:01:32;;;;;;;2.45;1.20;;;;;;;;;;4944983;28;20042;-68
2023/05/11 06:04:17;;;;;;;4.13;1.27;;;;;;;;;;4936215;28;20490;-69
2023/05/11 06:07:03;;;;;;;1.90;1.00;;;;;;;;;;4952373;28;20047;-71
2023/05/11 06:09:48;;;;;;;2.17;1.33;;;;;;;;;;4946506;28;20129;-70
2023/05/11 06:12:33;;;;;;;2.65;1.30;;;;;;;;;;4948689;28;20027;-70
2023/05/11 06:15:18;;;;;;;2.28;1.10;;;;;;;;;;4944042;28;20089;-68
2023/05/11 06:18:04;;;;;;;2.88;1.38;;;;;;;;;;4950361;28;20034;-62
2023/05/11 06:20:49;;;;;;;3.22;1.40;;;;;;;;;;4945308;28;20033;-71
2023/05/11 06:23:34;;;;;;;2.63;1.20;;;;;;;;;;4957321;28;20045;-68
2023/05/11 06:26:23;;;;;;;1.00;0.90;;;;;;;;;;4948998;28;20117;-75
2023/05/11 06:29:08;;;;;;;2.50;0.90;;;;;;;;;;4960823;28;20073;-74
2023/05/11 06:31:54;;;;;;;3.70;1.48;;;;;;;;;;4943354;28;20043;-74
2023/05/11 06:34:40;;;;;;;1.52;1.20;;;;;;;;;;4953231;28;20208;-65
2023/05/11 06:37:27;;;;;;;5.38;1.35;;;;;;;;;;4960565;28;20092;-61
2023/05/11 06:40:14;;;;;;;2.58;0.93;;;;;;;;;;4955362;28;20042;-62
2023/05/11 06:43:00;;;;;;;2.78;1.13;;;;;;;;;;4954916;28;20031;-62
2023/05/11 06:45:45;;;;;;;3.15;0.90;;;;;;;;;;4955027;28;20043;-63
2023/05/11 06:48:30;;;;;;;1.58;0.90;;;;;;;;;;4954272;28;20031;-62
2023/05/11 06:51:15;;;;;;;1.90;1.00;;;;;;;;;;4950412;28;20039;-62
2023/05/11 06:54:01;;;;;;;5.07;1.08;;;;;;;;;;4954382;28;20042;-75
2023/05/11 06:56:46;;;;;;;2.97;1.00;;;;;;;;;;4954657;28;20030;-63
2023/05/11 06:59:31;;;;;;;2.90;1.05;;;;;;;;;;4955335;28;20053;-63
2023/05/11 07:02:16;;;;;;;4.30;1.10;;;;;;;;;;4943620;28;20100;-64
2023/05/11 07:05:01;;;;;;;3.40;1.90;;;;;;;;;;4955197;28;20049;-64
2023/05/11 07:07:47;;;;;;;1.55;1.00;;;;;;;;;;4955169;28;20038;-63
2023/05/11 07:10:32;;;;;;;2.97;0.98;;;;;;;;;;4961015;28;20039;-67
2023/05/11 07:13:17;;;;;;;3.33;1.05;;;;;;;;;;4958136;28;20042;-67
2023/05/11 07:16:03;;;;;;;1.98;1.08;;;;;;;;;;4954236;28;20066;-69
2023/05/11 07:18:48;;;;;;;4.18;1.23;;;;;;;;;;4953676;28;20038;-69
2023/05/11 07:21:36;;;;;;;2.65;1.17;;;;;;;;;;4947152;29;20023;-68
2023/05/11 07:24:22;;;;;;;1.92;0.82;;;;;;;;;;4952430;28;20519;-68
2023/05/11 07:27:07;;;;;;;1.80;1.20;;;;;;;;;;4954973;28;20091;-68
2023/05/11 07:29:52;;;;;;;1.15;0.90;;;;;;;;;;4954512;28;20037;-68
2023/05/11 07:32:37;;;;;;;1.98;0.90;;;;;;;;;;4944571;28;20039;-75
2023/05/11 07:35:23;;;;;;;1.50;1.20;;;;;;;;;;4954209;28;20034;-68
2023/05/11 07:38:10;;;;;;;3.17;0.90;;;;;;;;;;4954646;28;20129;-68
2023/05/11 07:40:56;;;;;;;3.03;1.02;;;;;;;;;;4955548;28;20047;-70
2023/05/11 07:43:41;;;;;;;1.95;1.10;;;;;;;;;;4946780;28;20031;-67
2023/05/11 07:46:26;;;;;;;3.90;1.23;;;;;;;;;;4938430;28;20031;-66
2023/05/11 07:49:11;;;;;;;1.55;1.17;;;;;;;;;;4953246;28;20042;-63
2023/05/11 07:51:57;;;;;;;1.73;1.30;;;;;;;;;;4941708;28;20042;-62
2023/05/11 07:54:42;;;;;;;2.35;1.23;;;;;;;;;;4952613;28;20027;-62
2023/05/11 07:57:27;;;;;;;1.75;1.08;;;;;;;;;;4954231;28;20042;-63
2023/05/11 08:00:13;;;;;;;1.83;1.15;;;;;;;;;;4954393;28;20030;-63
2023/05/11 08:02:58;;;;;;;2.45;1.20;;;;;;;;;;4948800;28;20067;-63
2023/05/11 08:05:43;;;;;;;2.95;1.15;;;;;;;;;;4953971;28;20031;-61
2023/05/11 08:08:31;;;;;;;4.40;1.58;;;;;;;;;;4954140;28;20081;-60
2023/05/11 08:11:16;;;;;;;1.48;1.10;;;;;;;;;;4953074;28;20689;-75
2023/05/11 08:14:02;;;;;;;3.22;1.17;;;;;;;;;;4962004;28;20030;-75
2023/05/11 08:16:48;;;;;;;3.08;1.20;;;;;;;;;;4941185;28;20132;-77
2023/05/11 08:19:33;;;;;;;4.13;1.65;;;;;;;;;;4938032;28;20035;-75
2023/05/11 08:22:18;;;;;;;1.85;1.20;;;;;;;;;;4940987;28;20124;-77
2023/05/11 08:25:04;;;;;;;2.33;0.93;;;;;;;;;;4941910;28;20607;-62
2023/05/11 08:27:49;;;;;;;2.33;1.10;;;;;;;;;;4953503;28;20031;-62
2023/05/11 08:30:34;;;;;;;1.95;1.20;;;;;;;;;;4953450;28;20509;-63
2023/05/11 08:33:20;;;;;;;3.70;1.65;;;;;;;;;;4953680;28;20377;-63
2023/05/11 08:36:05;;;;;;;2.70;2.00;;;;;;;;;;4953702;28;20043;-63
2023/05/11 08:38:51;;;;;;;1.52;1.23;;;;;;;;;;4953764;28;20065;-63
2023/05/11 08:41:36;;;;;;;3.70;1.13;;;;;;;;;;4951375;28;20027;-65
2023/05/11 08:44:21;;;;;;;4.32;1.33;;;;;;;;;;4954176;28;20031;-70
2023/05/11 08:47:07;;;;;;;3.08;1.30;;;;;;;;;;4959513;28;20160;-64
2023/05/11 08:49:52;;;;;;;2.70;1.33;;;;;;;;;;4943749;28;20126;-66
2023/05/11 08:52:37;;;;;;;2.55;1.80;;;;;;;;;;4953597;28;20054;-65
2023/05/11 08:55:24;;;;;;;2.88;1.08;;;;;;;;;;4951518;28;20113;-66
2023/05/11 08:58:11;;;;;;;1.33;1.20;;;;;;;;;;4953024;28;20031;-67
2023/05/11 09:00:56;;;;;;;2.15;1.33;;;;;;;;;;4942959;28;20031;-65
2023/05/11 09:03:42;;;;;;;2.08;1.63;;;;;;;;;;4952467;28;20066;-72
2023/05/11 09:06:27;;;;;;;2.00;1.50;;;;;;;;;;4961016;28;20469;-60
2023/05/11 09:09:13;;;;;;;4.47;1.95;;;;;;;;;;4942134;28;20039;-62
2023/05/11 09:11:58;;;;;;;2.03;1.63;;;;;;;;;;4949331;28;20493;-62
2023/05/11 09:14:43;;;;;;;1.98;1.42;;;;;;;;;;4945318;28;20126;-61
2023/05/11 09:17:28;;;;;;;5.35;2.00;;;;;;;;;;4958321;28;20069;-61
2023/05/11 09:20:14;;;;;;;4.10;0.98;;;;;;;;;;4935955;28;20037;-68
2023/05/11 09:22:59;;;;;;;3.35;1.33;;;;;;;;;;4953013;28;20034;-62
2023/05/11 09:25:47;;;;;;;2.90;1.70;;;;;;;;;;4950895;28;20878;-63
2023/05/11 09:28:32;;;;;;;2.53;1.70;;;;;;;;;;4952843;28;20113;-63
2023/05/11 09:31:36;;;;;;;3.85;1.85;;;;;;;;;;4952514;28;20503;-63
2023/05/11 09:34:22;;;;;;;1.58;1.10;;;;;;;;;;4951811;28;20039;-63
2023/05/11 09:37:14;;;;;;;3.72;1.30;;;;;;;;;;4952793;28;20504;-61
2023/05/11 09:39:59;;;;;;;1.85;1.40;;;;;;;;;;4954479;28;20508;-74
2023/05/11 09:42:45;;;;;;;2.67;1.80;;;;;;;;;;4954383;28;20041;-66
2023/05/11 09:45:37;;;;;;;14.93;2.05;;;;;;;;;;4955982;28;20473;-65
2023/05/11 09:48:22;;;;;;;2.90;1.50;;;;;;;;;;4956922;28;20042;-64
2023/05/11 09:51:07;;;;;;;3.10;1.65;;;;;;;;;;4954722;28;20034;-64
2023/05/11 09:53:53;;;;;;;2.22;1.70;;;;;;;;;;4944622;28;20035;-64
2023/05/11 09:56:46;;;;;;;2.45;1.90;;;;;;;;;;4941475;28;20042;-61
2023/05/11 09:59:40;;;;;;;4.72;1.52;;;;;;;;;;4956238;28;20046;-64
2023/05/11 10:02:26;;;;;;;3.80;1.48;;;;;;;;;;4960820;28;20091;-68
2023/05/11 10:05:12;;;;;;;2.92;1.30;;;;;;;;;;4955731;28;20375;-68
2023/05/11 10:08:04;;;;;;;2.22;1.30;;;;;;;;;;4955565;28;20054;-67
2023/05/11 10:10:49;;;;;;;1.75;1.20;;;;;;;;;;4954500;28;20079;-70
2023/05/11 10:13:35;;;;;;;1.40;1.20;;;;;;;;;;4952252;28;20370;-68
2023/05/11 10:16:21;;;;;;;1.27;1.10;;;;;;;;;;4956027;28;20043;-61
2023/05/11 10:19:06;;;;;;;3.28;1.23;;;;;;;;;;4956435;28;20034;-73
2023/05/11 10:21:51;;;;;;;2.85;1.42;;;;;;;;;;4960284;28;20034;-72
2023/05/11 10:24:37;;;;;;;1.52;1.42;;;;;;;;;;4955819;28;20034;-74
2023/05/11 10:27:22;;;;;;;1.80;1.23;;;;;;;;;;4953987;28;20051;-76
2023/05/11 10:30:09;;;;;;;2.47;1.40;;;;;;;;;;4955643;28;20085;-75
2023/05/11 10:32:54;;;;;;;2.88;1.42;;;;;;;;;;4954626;28;20339;-73
2023/05/11 10:35:40;;;;;;;6.30;3.00;;;;;;;;;;4950209;28;20050;-67
2023/05/11 10:38:26;;;;;;;2.72;2.13;;;;;;;;;;4943361;28;20045;-69
2023/05/11 10:41:18;;;;;;;3.42;1.63;;;;;;;;;;4954065;28;20046;-69
2023/05/11 10:44:22;;;;;;;2.55;1.70;;;;;;;;;;4947178;28;20034;-68
2023/05/11 10:47:13;;;;;;;3.83;2.00;;;;;;;;;;4955144;28;20385;-68
2023/05/11 10:50:17;;;;;;;4.55;1.98;;;;;;;;;;4947288;28;20099;-68
2023/05/11 10:53:02;;;;;;;1.95;1.40;;;;;;;;;;4946742;28;20035;-64
2023/05/11 10:56:08;;;;;;;2.25;1.45;;;;;;;;;;4958000;28;20405;-70
2023/05/11 10:59:09;;;;;;;2.38;1.38;;;;;;;;;;4938038;28;20050;-70
2023/05/11 11:01:57;;;;;;;1.98;1.50;;;;;;;;;;4953415;28;20038;-71
2023/05/11 11:04:44;;;;;;;2.47;1.83;;;;;;;;;;4953720;28;20112;-70
2023/05/11 11:07:29;;;;;;;1.70;1.30;;;;;;;;;;4945473;28;20509;-70
2023/05/11 11:10:28;;;;;;;2.20;1.60;;;;;;;;;;4954516;28;20288;-76
2023/05/11 11:13:13;;;;;;;1.50;1.30;;;;;;;;;;4935537;28;20035;-76
2023/05/11 11:16:02;;;;;;;3.17;1.48;;;;;;;;;;4943842;28;20440;-68
2023/05/11 11:18:47;;;;;;;1.98;1.27;;;;;;;;;;4954885;28;20039;-67
2023/05/11 11:21:41;;;;;;;2.70;1.27;;;;;;;;;;4946674;29;20577;-66
2023/05/11 11:24:36;;;;;;;3.30;1.52;;;;;;;;;;4955319;28;20540;-67
2023/05/11 11:27:41;;;;;;;3.50;1.85;;;;;;;;;;4956653;28;20031;-67
2023/05/11 11:30:29;;;;;;;3.22;1.38;;;;;;;;;;4957571;28;20069;-67
2023/05/11 11:33:14;;;;;;;1.25;1.02;;;;;;;;;;4935735;29;20064;-61
2023/05/11 11:35:59;;;;;;;1.83;1.10;;;;;;;;;;4949525;28;20031;-63
2023/05/11 11:38:58;;;;;;;2.38;1.40;;;;;;;;;;4954367;28;20089;-62
2023/05/11 11:41:44;;;;;;;2.60;1.58;;;;;;;;;;4953000;28;20112;-62
2023/05/11 11:44:29;;;;;;;2.15;1.40;;;;;;;;;;4954607;28;20081;-62
2023/05/11 11:47:15;;;;;;;2.45;1.30;;;;;;;;;;4954638;28;20405;-66
2023/05/11 11:50:09;;;;;;;2.78;1.58;;;;;;;;;;4946568;28;20061;-65
2023/05/11 11:52:55;;;;;;;2.70;1.38;;;;;;;;;;4940575;28;20031;-78
2023/05/11 11:55:45;;;;;;;1.67;1.20;;;;;;;;;;4954166;28;20035;-75
2023/05/11 11:58:45;;;;;;;1.45;1.20;;;;;;;;;;4955919;28;20050;-75
2023/05/11 12:01:35;;;;;;;1.98;1.38;;;;;;;;;;4952845;28;20543;-76
2023/05/11 12:04:43;;;;;;;1.70;1.38;;;;;;;;;;4925664;28;20035;-75
2023/05/11 12:07:32;;;;;;;1.60;1.10;;;;;;;;;;4945622;28;20038;-62
2023/05/11 12:10:18;;;;;;;1.47;0.87;;;;;;;;;;4953922;28;20027;-62
2023/05/11 12:13:04;;;;;;;1.65;1.10;;;;;;;;;;4944934;28;20038;-62
2023/05/11 12:15:49;;;;;;;1.17;0.80;;;;;;;;;;4941242;28;20493;-61
2023/05/11 12:18:35;;;;;;;0.85;0.80;;;;;;;;;;4953772;28;20092;-60
2023/05/11 12:21:20;;;;;;;1.73;1.20;;;;;;;;;;4947895;29;20035;-62
2023/05/11 12:24:06;;;;;;;1.55;0.73;;;;;;;;;;4948272;28;20043;-67
2023/05/11 12:26:54;;;;;;;2.33;0.90;;;;;;;;;;4954047;28;20027;-74
2023/05/11 12:29:40;;;;;;;2.08;1.02;;;;;;;;;;4957663;28;20290;-68
2023/05/11 12:32:26;;;;;;;1.00;0.90;;;;;;;;;;4954365;28;20046;-68
2023/05/11 12:35:12;;;;;;;1.15;1.05;;;;;;;;;;4944707;28;20043;-68
2023/05/11 12:37:58;;;;;;;2.28;0.93;;;;;;;;;;4950743;28;20084;-66
2023/05/11 12:40:47;;;;;;;1.38;0.93;;;;;;;;;;4953971;28;20039;-65
2023/05/11 12:43:33;;;;;;;1.38;0.80;;;;;;;;;;4951841;28;20034;-69
2023/05/11 12:46:19;;;;;;;3.40;1.50;;;;;;;;;;4953625;28;20046;-61
2023/05/11 12:49:04;;;;;;;1.83;1.23;;;;;;;;;;4949577;28;20127;-61
2023/05/11 12:52:01;;;;;;;1.02;0.88;;;;;;;;;;4960924;28;20039;-62
2023/05/11 12:54:58;;;;;;;1.77;0.80;;;;;;;;;;4951596;28;20038;-61
2023/05/11 12:57:43;;;;;;;3.28;1.05;;;;;;;;;;4949625;28;20096;-62
2023/05/11 13:00:28;;;;;;;4.95;1.40;;;;;;;;;;4922609;29;20069;-62
2023/05/11 13:03:19;;;;;;;4.78;2.67;;;;;;;;;;4954396;28;20049;-73
2023/05/11 13:06:09;;;;;;;4.35;1.27;;;;;;;;;;4942390;28;20039;-66
2023/05/11 13:08:54;;;;;;;1.00;0.90;;;;;;;;;;4933060;28;20043;-65
2023/05/11 13:11:40;;;;;;;2.95;1.15;;;;;;;;;;4947368;28;20046;-65
2023/05/11 13:14:29;;;;;;;1.73;1.10;;;;;;;;;;4930513;29;20035;-66
2023/05/11 13:17:30;;;;;;;3.95;1.27;;;;;;;;;;4951902;28;20038;-65
2023/05/11 13:20:23;;;;;;;1.70;1.10;;;;;;;;;;4970533;28;20050;-67
2023/05/11 13:23:10;;;;;;;8.07;2.85;;;;;;;;;;5012517;22;20055;-71
2023/05/11 13:25:55;;;;;;;1.95;1.05;;;;;;;;;;5083152;28;20161;-73
2023/05/11 13:28:40;;;;;;;2.08;1.15;;;;;;;;;;5085660;28;20025;-72
2023/05/11 13:31:26;;;;;;;3.55;1.10;;;;;;;;;;5070826;28;20458;-71
2023/05/11 13:34:11;;;;;;;1.55;1.10;;;;;;;;;;5094378;28;20070;-73
2023/05/11 13:36:56;;;;;;;2.47;0.90;;;;;;;;;;5087781;28;20031;-71
2023/05/11 13:39:41;;;;;;;1.35;1.00;;;;;;;;;;5087204;28;20054;-76
2023/05/11 13:42:27;;;;;;;2.13;1.08;;;;;;;;;;5058534;28;20369;-72
2023/05/11 13:45:12;;;;;;;1.45;0.93;;;;;;;;;;5081827;28;20073;-72
2023/05/11 13:47:57;;;;;;;2.83;1.20;;;;;;;;;;5073522;28;20074;-72
2023/05/11 13:50:43;;;;;;;2.65;1.40;;;;;;;;;;5093536;28;20401;-72
2023/05/11 13:53:28;;;;;;;1.20;0.98;;;;;;;;;;5093284;28;20104;-72
2023/05/11 13:56:15;;;;;;;1.05;0.95;;;;;;;;;;5087153;28;20023;-70
2023/05/11 13:59:00;;;;;;;1.80;1.00;;;;;;;;;;5063841;28;20042;-72
2023/05/11 14:01:45;;;;;;;3.03;0.90;;;;;;;;;;5092297;28;20400;-69
2023/05/11 14:04:31;;;;;;;1.42;0.80;;;;;;;;;;5074229;28;20060;-71
2023/05/11 14:07:16;;;;;;;0.80;0.75;;;;;;;;;;5072977;28;20043;-69
2023/05/11 14:10:02;;;;;;;3.33;0.90;;;;;;;;;;5074502;28;20063;-71
2023/05/11 14:12:47;;;;;;;1.58;0.90;;;;;;;;;;5082911;28;20470;-69
2023/05/11 14:15:33;;;;;;;2.08;0.90;;;;;;;;;;5092106;28;20032;-73
2023/05/11 14:18:18;;;;;;;1.20;1.00;;;;;;;;;;5079558;28;20031;-72
2023/05/11 14:21:03;;;;;;;1.20;0.85;;;;;;;;;;5081620;28;20378;-72
2023/05/11 14:23:49;;;;;;;1.83;1.40;;;;;;;;;;5092716;28;20093;-74
2023/05/11 14:26:34;;;;;;;1.55;1.08;;;;;;;;;;5083846;28;20039;-71
2023/05/11 14:29:19;;;;;;;1.73;1.10;;;;;;;;;;5096196;28;20466;-71
2023/05/11 14:32:04;;;;;;;1.63;0.93;;;;;;;;;;5097445;28;20044;-72
2023/05/11 14:34:50;;;;;;;1.42;0.95;;;;;;;;;;5096349;28;20084;-71
2023/05/11 14:37:35;;;;;;;2.63;1.13;;;;;;;;;;5081898;28;20031;-72
2023/05/11 14:40:20;;;;;;;1.50;0.90;;;;;;;;;;5098589;28;20031;-72
2023/05/11 14:43:06;;;;;;;2.50;1.20;;;;;;;;;;5096287;28;20462;-72
2023/05/11 14:45:52;;;;;;;2.20;1.10;;;;;;;;;;5076718;28;20101;-72
2023/05/11 14:48:37;;;;;;;0.82;0.73;;;;;;;;;;5093971;28;20024;-72
2023/05/11 14:51:22;;;;;;;1.23;0.82;;;;;;;;;;5077904;28;20032;-72
2023/05/11 14:54:07;;;;;;;1.30;0.98;;;;;;;;;;5096016;28;20031;-71
2023/05/11 14:56:53;;;;;;;1.55;0.90;;;;;;;;;;5096320;28;20023;-70
2023/05/11 14:59:40;;;;;;;2.53;0.80;;;;;;;;;;5094336;28;20035;-70
2023/05/11 15:02:25;;;;;;;0.93;0.80;;;;;;;;;;5096614;28;20032;-70
2023/05/11 15:05:11;;;;;;;0.70;0.70;;;;;;;;;;5096372;28;20019;-68
2023/05/11 15:07:56;;;;;;;1.83;0.90;;;;;;;;;;5096547;28;20118;-70
2023/05/11 15:10:41;;;;;;;1.35;1.10;;;;;;;;;;5086582;28;20489;-75
2023/05/11 15:13:43;;;;;;;0.85;0.75;;;;;;;;;;5104052;27;20483;-72
2023/05/11 15:16:29;;;;;;;0.98;0.82;;;;;;;;;;5084783;28;20119;-72
2023/05/11 15:19:15;;;;;;;1.40;0.77;;;;;;;;;;5121986;27;20059;-71
2023/05/11 15:22:00;;;;;;;2.83;0.98;;;;;;;;;;5094058;28;20031;-72
2023/05/11 15:24:45;;;;;;;1.60;1.00;;;;;;;;;;5090773;28;20169;-69
2023/05/11 15:27:31;;;;;;;2.60;0.93;;;;;;;;;;5104765;28;20104;-73
2023/05/11 15:30:16;;;;;;;1.58;1.00;;;;;;;;;;5102955;28;20231;-68
2023/05/11 15:33:01;;;;;;;1.30;1.08;;;;;;;;;;5104976;28;20035;-70
2023/05/11 15:35:49;;;;;;;1.70;1.10;;;;;;;;;;5105203;28;20020;-68
2023/05/11 15:38:34;;;;;;;4.43;1.75;;;;;;;;;;5105395;28;20038;-70
2023/05/11 15:41:20;;;;;;;4.43;1.10;;;;;;;;;;5108533;28;20019;-68
2023/05/11 15:44:05;;;;;;;2.10;1.00;;;;;;;;;;5106142;28;20023;-69
2023/05/11 15:46:50;;;;;;;3.97;1.00;;;;;;;;;;5104099;28;20049;-72
2023/05/11 15:49:35;;;;;;;1.80;1.42;;;;;;;;;;5100758;28;20413;-70
2023/05/11 15:52:21;;;;;;;1.02;0.93;;;;;;;;;;5104914;28;20032;-71
2023/05/11 15:55:06;;;;;;;1.10;0.98;;;;;;;;;;5104355;28;20020;-70
2023/05/11 15:57:51;;;;;;;2.10;0.90;;;;;;;;;;5097869;28;20382;-70
2023/05/11 16:00:37;;;;;;;3.22;1.45;;;;;;;;;;5082963;28;20024;-70
2023/05/11 16:03:22;;;;;;;1.00;0.90;;;;;;;;;;5100651;28;20024;-71
2023/05/11 16:06:08;;;;;;;1.65;1.15;;;;;;;;;;5104571;28;20038;-70
2023/05/11 16:08:53;;;;;;;3.30;1.45;;;;;;;;;;5089725;28;20023;-68
2023/05/11 16:11:39;;;;;;;2.05;1.02;;;;;;;;;;5093033;28;20044;-68
2023/05/11 16:14:25;;;;;;;1.40;1.23;;;;;;;;;;5092088;28;20078;-67
2023/05/11 16:17:10;;;;;;;0.90;0.90;;;;;;;;;;5100846;28;20385;-67
2023/05/11 16:19:55;;;;;;;1.98;1.27;;;;;;;;;;5103936;28;20455;-69
2023/05/11 16:22:41;;;;;;;1.58;1.00;;;;;;;;;;5090071;28;20020;-70
2023/05/11 16:25:26;;;;;;;2.35;1.30;;;;;;;;;;5090529;28;20030;-70
2023/05/11 16:28:11;;;;;;;1.30;1.02;;;;;;;;;;5088370;28;20020;-70
2023/05/11 16:30:57;;;;;;;1.98;1.35;;;;;;;;;;5088856;28;20024;-71
2023/05/11 16:33:42;;;;;;;1.90;1.13;;;;;;;;;;5070867;28;20029;-69
2023/05/11 16:36:28;;;;;;;2.97;1.40;;;;;;;;;;5088313;28;20364;-69
2023/05/11 16:39:13;;;;;;;5.07;1.85;;;;;;;;;;5083575;28;20016;-70